Weather at Asiago Airport

Public forecast

Using degrees Celsius for public forecast. Weather courtesy of forecast.io.

Closest aviation weather report (METAR) to Asiago Airport

Closest report is Istrana Air Base, 26.6 nm (49.3 km) ESE. Retrieved 2021/06/19 21:55 UTC (28 minutes ago):

LIPS 192155Z 06003KT CAVOK 25/23 Q1013 RMK SKC VIS MIN 9999 WIND THR26 00000KT WIND THR08 31002KT BLU

Closest aviation forecast (TAF) to Asiago Airport

Forecast is more than 12 hours old.

Closest forecast is Istrana Air Base, 26.6 nm (49.3 km) ESE. Retrieved 2020/04/14 06:24 UTC (1 year ago):

TAF TAF LIPS 140800Z 1406/1418 05010KT CAVOK